createdAt,value
2023-02-19T00:00:48.110Z,9.443707
2023-02-19T00:01:48.140Z,9.443729
2023-02-19T00:02:48.098Z,9.443640
2023-02-19T00:03:48.215Z,9.443603
2023-02-19T00:04:48.130Z,9.443588
2023-02-19T00:05:48.088Z,9.443591
2023-02-19T00:06:48.062Z,9.443622
2023-02-19T00:07:48.095Z,9.443679
2023-02-19T00:08:48.101Z,9.443768
2023-02-19T00:09:48.024Z,9.443768
2023-02-19T00:10:50.318Z,9.443717
2023-02-19T00:11:48.172Z,9.443674
2023-02-19T00:12:48.052Z,9.443635
2023-02-19T00:13:48.057Z,9.443606
2023-02-19T00:14:48.108Z,9.443576
2023-02-19T00:15:48.637Z,9.443749
2023-02-19T00:16:48.005Z,9.443708
2023-02-19T00:17:49.148Z,9.443715
2023-02-19T00:18:48.029Z,9.443759
2023-02-19T00:19:48.197Z,9.443696
2023-02-19T00:20:48.981Z,9.443715
2023-02-19T00:21:48.156Z,9.443754
2023-02-19T00:22:48.511Z,9.443793
2023-02-19T00:23:47.976Z,9.443733
2023-02-19T00:24:49.319Z,9.443729
2023-02-19T00:25:49.056Z,9.443696
2023-02-19T00:26:48.009Z,9.443739
2023-02-19T00:27:48.613Z,9.443701
2023-02-19T00:28:47.896Z,9.443683
2023-02-19T00:29:48.516Z,9.443684
2023-02-19T00:30:47.931Z,9.443691
2023-02-19T00:31:48.243Z,9.443772
2023-02-19T00:32:47.905Z,9.443582
2023-02-19T00:33:48.011Z,9.443589
2023-02-19T00:34:48.011Z,9.443625
2023-02-19T00:35:47.869Z,9.443637
2023-02-19T00:36:48.692Z,9.443657
2023-02-19T00:37:47.905Z,9.443682
2023-02-19T00:38:48.552Z,9.443702
2023-02-19T00:39:47.816Z,9.443690
2023-02-19T00:40:48.616Z,9.443677
2023-02-19T00:41:48.612Z,9.443725
2023-02-19T00:42:47.853Z,9.443757
2023-02-19T00:43:48.009Z,9.443750
2023-02-19T00:44:47.828Z,9.443738
2023-02-19T00:45:48.624Z,9.443649
2023-02-19T00:46:48.661Z,9.443631
2023-02-19T00:47:48.757Z,9.443669
2023-02-19T00:48:47.864Z,9.443661
2023-02-19T00:49:47.801Z,9.443708
2023-02-19T00:50:47.784Z,9.443683
2023-02-19T00:51:47.843Z,9.443703
2023-02-19T00:52:47.768Z,9.443717
2023-02-19T00:53:47.903Z,9.443717
2023-02-19T00:54:47.773Z,9.443746
2023-02-19T00:55:47.762Z,9.443719
2023-02-19T00:56:47.728Z,9.443645
2023-02-19T00:57:47.741Z,9.443704
2023-02-19T00:58:47.832Z,9.443678
2023-02-19T00:59:47.749Z,9.443698
2023-02-19T01:00:47.700Z,9.443694
2023-02-19T01:01:47.715Z,9.443657
2023-02-19T01:02:47.676Z,9.443688
2023-02-19T01:03:47.687Z,9.443663
2023-02-19T01:04:47.774Z,9.443701
2023-02-19T01:05:47.738Z,9.443676
2023-02-19T01:06:47.757Z,9.443521
2023-02-19T01:07:47.687Z,9.443521
2023-02-19T01:08:47.656Z,9.443640
2023-02-19T01:09:47.622Z,9.443557
2023-02-19T01:10:47.674Z,9.443527
2023-02-19T01:11:47.665Z,9.443611
2023-02-19T01:12:47.631Z,9.443623
2023-02-19T01:13:47.659Z,9.443745
2023-02-19T01:14:47.691Z,9.443757
2023-02-19T01:15:48.728Z,9.443678
2023-02-19T01:16:47.649Z,9.443680
2023-02-19T01:17:47.588Z,9.443787
2023-02-19T01:18:47.583Z,9.443713
2023-02-19T01:19:47.587Z,9.443660
2023-02-19T01:20:47.590Z,9.443704
2023-02-19T01:21:47.606Z,9.443726
2023-02-19T01:22:47.550Z,9.443680
2023-02-19T01:23:47.542Z,9.443794
2023-02-19T01:24:47.536Z,9.443653
2023-02-19T01:25:48.532Z,9.443778
2023-02-19T01:26:47.557Z,9.443709
2023-02-19T01:27:47.506Z,9.443692
2023-02-19T01:28:47.532Z,9.443686
2023-02-19T01:29:47.590Z,9.443740
2023-02-19T01:30:47.589Z,9.443768
2023-02-19T01:31:47.654Z,9.443633
2023-02-19T01:32:47.521Z,9.443766
2023-02-19T01:33:47.543Z,9.443687
2023-02-19T01:34:47.520Z,9.443710
2023-02-19T01:35:47.520Z,9.443726
2023-02-19T01:36:47.512Z,9.443785
2023-02-19T01:37:47.530Z,9.443764
2023-02-19T01:38:47.469Z,9.443759
2023-02-19T01:39:47.621Z,9.443762
2023-02-19T01:40:47.442Z,9.443725
2023-02-19T01:41:47.585Z,9.443698
2023-02-19T01:42:47.429Z,9.443916
2023-02-19T01:43:47.443Z,9.443703
2023-02-19T01:44:47.442Z,9.443702
2023-02-19T01:45:47.443Z,9.443729
2023-02-19T01:46:47.786Z,9.443706
2023-02-19T01:47:47.428Z,9.443778
2023-02-19T01:48:47.662Z,9.443754
2023-02-19T01:49:47.384Z,9.443737
2023-02-19T01:50:47.419Z,9.443766
2023-02-19T01:51:47.379Z,9.443803
2023-02-19T01:52:47.383Z,9.443762
2023-02-19T01:53:47.359Z,9.443792
2023-02-19T01:54:47.413Z,9.443808
2023-02-19T01:55:47.349Z,9.443815
2023-02-19T01:56:48.345Z,9.443881
2023-02-19T01:57:47.421Z,9.443796
2023-02-19T01:58:47.394Z,9.443744
2023-02-19T01:59:47.360Z,9.443736
2023-02-19T02:00:47.331Z,9.443767
2023-02-19T02:01:47.354Z,9.443725
2023-02-19T02:02:47.294Z,9.443748
2023-02-19T02:03:48.321Z,9.443748
2023-02-19T02:04:47.285Z,9.443698
2023-02-19T02:05:47.340Z,9.443718
2023-02-19T02:06:47.290Z,9.443693
2023-02-19T02:07:48.137Z,9.443700
2023-02-19T02:08:47.325Z,9.443730
2023-02-19T02:09:47.269Z,9.443663
2023-02-19T02:10:48.158Z,9.443711
2023-02-19T02:11:48.117Z,9.443747
2023-02-19T02:12:47.639Z,9.443706
2023-02-19T02:13:47.230Z,9.443675
2023-02-19T02:14:47.274Z,9.443737
2023-02-19T02:15:48.133Z,9.443784
2023-02-19T02:16:47.222Z,9.443712
2023-02-19T02:17:47.237Z,9.443702
2023-02-19T02:18:47.240Z,9.443739
2023-02-19T02:19:47.186Z,9.443725
2023-02-19T02:20:47.223Z,9.443739
2023-02-19T02:21:47.218Z,9.443686
2023-02-19T02:22:47.186Z,9.443716
2023-02-19T02:23:47.261Z,9.443744
2023-02-19T02:24:47.151Z,9.443726
2023-02-19T02:25:47.204Z,9.443729
2023-02-19T02:26:47.224Z,9.443685
2023-02-19T02:27:47.213Z,9.443726
2023-02-19T02:28:47.198Z,9.443643
2023-02-19T02:29:47.169Z,9.443736
2023-02-19T02:30:47.145Z,9.443737
2023-02-19T02:31:47.212Z,9.443735
2023-02-19T02:32:47.172Z,9.443743
2023-02-19T02:33:47.164Z,9.443737
2023-02-19T02:34:47.138Z,9.443619
2023-02-19T02:35:47.215Z,9.443656
2023-02-19T02:36:47.101Z,9.443632
2023-02-19T02:37:47.117Z,9.443709
2023-02-19T02:38:47.091Z,9.443696
2023-02-19T02:39:47.104Z,9.443624
2023-02-19T02:40:47.117Z,9.443704
2023-02-19T02:41:47.044Z,9.443652
2023-02-19T02:42:47.079Z,9.443648
2023-02-19T02:43:47.074Z,9.443662
2023-02-19T02:44:47.056Z,9.443612
2023-02-19T02:45:47.041Z,9.443667
2023-02-19T02:46:47.064Z,9.443604
2023-02-19T02:47:47.025Z,9.443665
2023-02-19T02:48:47.012Z,9.443616
2023-02-19T02:49:47.623Z,9.443633
2023-02-19T02:50:47.020Z,9.443695
2023-02-19T02:51:46.987Z,9.443661
2023-02-19T02:52:46.994Z,9.443636
2023-02-19T02:53:47.018Z,9.443707
2023-02-19T02:54:46.991Z,9.443734
2023-02-19T02:55:46.986Z,9.443686
2023-02-19T02:56:47.026Z,9.443649
2023-02-19T02:57:46.938Z,9.443696
2023-02-19T02:58:46.961Z,9.443690
2023-02-19T02:59:46.935Z,9.443792
2023-02-19T03:00:46.928Z,9.443721
2023-02-19T03:01:46.936Z,9.443823
2023-02-19T03:02:46.908Z,9.443799
2023-02-19T03:03:46.956Z,9.443769
2023-02-19T03:04:47.714Z,9.443699
2023-02-19T03:05:46.914Z,9.443743
2023-02-19T03:06:46.938Z,9.443738
2023-02-19T03:07:46.905Z,9.443763
2023-02-19T03:08:46.876Z,9.443840
2023-02-19T03:09:49.354Z,9.443814
2023-02-19T03:10:46.871Z,9.443794
2023-02-19T03:11:46.878Z,9.443725
2023-02-19T03:12:46.858Z,9.443652
2023-02-19T03:13:46.869Z,9.443619
2023-02-19T03:14:46.838Z,9.443676
2023-02-19T03:15:46.849Z,9.443640
2023-02-19T03:16:47.059Z,9.443629
2023-02-19T03:17:46.862Z,9.443617
2023-02-19T03:18:46.852Z,9.443638
2023-02-19T03:19:46.807Z,9.443648
2023-02-19T03:20:46.812Z,9.443707
2023-02-19T03:21:46.874Z,9.443692
2023-02-19T03:22:46.810Z,9.443719
2023-02-19T03:23:46.778Z,9.443637
2023-02-19T03:24:46.824Z,9.443575
2023-02-19T03:25:46.759Z,9.443615
2023-02-19T03:26:46.796Z,9.443553
2023-02-19T03:27:46.824Z,9.443745
2023-02-19T03:28:46.775Z,9.443738
2023-02-19T03:29:46.735Z,9.443745
2023-02-19T03:30:46.734Z,9.443721
2023-02-19T03:31:46.823Z,9.443810
2023-02-19T03:32:46.730Z,9.443733
2023-02-19T03:33:46.753Z,9.443695
2023-02-19T03:34:46.707Z,9.443603
2023-02-19T03:35:46.705Z,9.443760
2023-02-19T03:36:47.719Z,9.443911
2023-02-19T03:37:46.751Z,9.443868
2023-02-19T03:38:46.712Z,9.443827
2023-02-19T03:39:46.717Z,9.443620
2023-02-19T03:40:46.665Z,9.443418
2023-02-19T03:41:46.654Z,9.443466
2023-02-19T03:42:46.672Z,9.443422
2023-02-19T03:43:46.673Z,9.443426
2023-02-19T03:44:46.660Z,9.443544
2023-02-19T03:45:46.674Z,9.443577
2023-02-19T03:46:46.722Z,9.443563
2023-02-19T03:47:46.705Z,9.443439
2023-02-19T03:48:46.664Z,9.443822
2023-02-19T03:49:48.925Z,9.443834
2023-02-19T03:50:47.602Z,9.443762
2023-02-19T03:51:46.624Z,9.443738
2023-02-19T03:52:46.614Z,9.443677
2023-02-19T03:53:46.608Z,9.443620
2023-02-19T03:54:46.591Z,9.443554
2023-02-19T03:55:46.591Z,9.443594
2023-02-19T03:56:46.578Z,9.443646
2023-02-19T03:57:46.592Z,9.443681
2023-02-19T03:58:48.128Z,9.443756
2023-02-19T03:59:46.548Z,9.443885
2023-02-19T04:00:46.552Z,9.443919
2023-02-19T04:01:46.636Z,9.443901
2023-02-19T04:02:46.533Z,9.443764
2023-02-19T04:03:46.529Z,9.443508
2023-02-19T04:04:46.558Z,9.443486
2023-02-19T04:05:46.573Z,9.443492
2023-02-19T04:06:46.569Z,9.443623
2023-02-19T04:07:46.526Z,9.443793
2023-02-19T04:08:46.525Z,9.443843
2023-02-19T04:09:46.510Z,9.443753
2023-02-19T04:10:46.501Z,9.443709
2023-02-19T04:11:46.478Z,9.443750
2023-02-19T04:12:47.133Z,9.443683
2023-02-19T04:13:46.469Z,9.443726
2023-02-19T04:14:46.499Z,9.443692
2023-02-19T04:15:46.515Z,9.443616
2023-02-19T04:16:46.552Z,9.443670
2023-02-19T04:17:46.433Z,9.443725
2023-02-19T04:18:46.478Z,9.443719
2023-02-19T04:19:46.414Z,9.443712
2023-02-19T04:20:46.420Z,9.443793
2023-02-19T04:21:46.426Z,9.443826
2023-02-19T04:22:46.430Z,9.443769
2023-02-19T04:23:46.418Z,9.443686
2023-02-19T04:24:46.387Z,9.443787
2023-02-19T04:25:46.413Z,9.443720
2023-02-19T04:26:46.557Z,9.443694
2023-02-19T04:27:46.381Z,9.443718
2023-02-19T04:28:46.385Z,9.443790
2023-02-19T04:29:46.380Z,9.443723
2023-02-19T04:30:46.402Z,9.443720
2023-02-19T04:31:46.457Z,9.443815
2023-02-19T04:32:46.358Z,9.443810
2023-02-19T04:33:46.396Z,9.443835
2023-02-19T04:34:46.350Z,9.443830
2023-02-19T04:35:46.333Z,9.443800
2023-02-19T04:36:46.312Z,9.443838
2023-02-19T04:37:46.449Z,9.443882
2023-02-19T04:38:46.305Z,9.443884
2023-02-19T04:39:46.389Z,9.443887
2023-02-19T04:40:47.227Z,9.443669
2023-02-19T04:41:46.283Z,9.443681
2023-02-19T04:42:46.344Z,9.443715
2023-02-19T04:43:47.149Z,9.443789
2023-02-19T04:44:46.365Z,9.443807
2023-02-19T04:45:46.281Z,9.443728
2023-02-19T04:46:46.266Z,9.443710
2023-02-19T04:47:46.270Z,9.443788
2023-02-19T04:48:47.175Z,9.443805
2023-02-19T04:49:46.335Z,9.443850
2023-02-19T04:50:46.257Z,9.443839
2023-02-19T04:51:46.220Z,9.443805
2023-02-19T04:52:46.252Z,9.443741
2023-02-19T04:53:46.215Z,9.443822
2023-02-19T04:54:46.240Z,9.443828
2023-02-19T04:55:46.207Z,9.443835
2023-02-19T04:56:46.214Z,9.443824
2023-02-19T04:57:46.227Z,9.443836
2023-02-19T04:58:47.148Z,9.443735
2023-02-19T04:59:46.190Z,9.443649
2023-02-19T05:00:46.239Z,9.443576
2023-02-19T05:01:46.248Z,9.443642
2023-02-19T05:02:46.190Z,9.443850
2023-02-19T05:03:46.183Z,9.443837
2023-02-19T05:04:46.171Z,9.443870
2023-02-19T05:05:47.179Z,9.443624
2023-02-19T05:06:46.206Z,9.443646
2023-02-19T05:07:46.139Z,9.443630
2023-02-19T05:08:46.203Z,9.443683
2023-02-19T05:09:46.154Z,9.443666
2023-02-19T05:10:47.182Z,9.443603
2023-02-19T05:11:46.145Z,9.443707
2023-02-19T05:12:46.163Z,9.443802
2023-02-19T05:13:46.145Z,9.443830
2023-02-19T05:14:46.084Z,9.443789
2023-02-19T05:15:46.213Z,9.443843
2023-02-19T05:16:46.060Z,9.443804
2023-02-19T05:17:46.157Z,9.443790
2023-02-19T05:18:46.135Z,9.443815
2023-02-19T05:19:46.051Z,9.443697
2023-02-19T05:20:46.093Z,9.443744
2023-02-19T05:21:46.085Z,9.443792
2023-02-19T05:22:46.040Z,9.443857
2023-02-19T05:23:46.022Z,9.443776
2023-02-19T05:24:46.701Z,9.443755
2023-02-19T05:25:46.047Z,9.443789
2023-02-19T05:26:46.067Z,9.443756
2023-02-19T05:27:46.019Z,9.443718
2023-02-19T05:28:46.001Z,9.443730
2023-02-19T05:29:45.979Z,9.443685
2023-02-19T05:30:46.047Z,9.443733
2023-02-19T05:31:46.054Z,9.443764
2023-02-19T05:32:45.957Z,9.443678
2023-02-19T05:33:45.943Z,9.443704
2023-02-19T05:34:45.956Z,9.443728
2023-02-19T05:35:45.960Z,9.443782
2023-02-19T05:36:45.964Z,9.443605
2023-02-19T05:37:46.000Z,9.443667
2023-02-19T05:38:46.185Z,9.443724
2023-02-19T05:39:45.922Z,9.443783
2023-02-19T05:40:45.953Z,9.443775
2023-02-19T05:41:45.944Z,9.443724
2023-02-19T05:42:45.948Z,9.443686
2023-02-19T05:43:45.913Z,9.443708
2023-02-19T05:44:45.934Z,9.443741
2023-02-19T05:45:45.906Z,9.443701
2023-02-19T05:46:45.941Z,9.443686
2023-02-19T05:47:45.902Z,9.443698
2023-02-19T05:48:45.862Z,9.443650
2023-02-19T05:49:45.849Z,9.443673
2023-02-19T05:50:45.854Z,9.443694
2023-02-19T05:51:45.845Z,9.443782
2023-02-19T05:52:45.882Z,9.443771
2023-02-19T05:53:45.829Z,9.443792
2023-02-19T05:54:45.843Z,9.443887
2023-02-19T05:55:45.934Z,9.443744
2023-02-19T05:56:45.909Z,9.443665
2023-02-19T05:57:45.830Z,9.443737
2023-02-19T05:58:45.849Z,9.443730
2023-02-19T05:59:45.881Z,9.443618
2023-02-19T06:00:45.868Z,9.443700
2023-02-19T06:01:45.830Z,9.443746
2023-02-19T06:02:45.837Z,9.443761
2023-02-19T06:03:45.867Z,9.443743
2023-02-19T06:04:45.815Z,9.443804
2023-02-19T06:05:45.784Z,9.443696
2023-02-19T06:06:45.771Z,9.443691
2023-02-19T06:07:45.771Z,9.443747
2023-02-19T06:08:45.752Z,9.443768
2023-02-19T06:09:45.795Z,9.443750
2023-02-19T06:10:45.739Z,9.443752
2023-02-19T06:11:45.760Z,9.443918
2023-02-19T06:12:45.716Z,9.443817
2023-02-19T06:13:45.735Z,9.443756
2023-02-19T06:14:45.711Z,9.443707
2023-02-19T06:15:45.751Z,9.443666
2023-02-19T06:16:46.650Z,9.443724
2023-02-19T06:17:45.708Z,9.443760
2023-02-19T06:18:45.671Z,9.443686
2023-02-19T06:19:45.721Z,9.443666
2023-02-19T06:20:45.694Z,9.443681
2023-02-19T06:21:45.714Z,9.443679
2023-02-19T06:22:45.723Z,9.443651
2023-02-19T06:23:45.672Z,9.443672
2023-02-19T06:24:45.688Z,9.443628
2023-02-19T06:25:45.719Z,9.443663
2023-02-19T06:26:45.651Z,9.443653
2023-02-19T06:27:45.636Z,9.443705
2023-02-19T06:28:45.615Z,9.443686
2023-02-19T06:29:45.660Z,9.443702
2023-02-19T06:30:45.638Z,9.443694
2023-02-19T06:31:48.240Z,9.443675
2023-02-19T06:32:48.625Z,9.443696
2023-02-19T06:33:47.623Z,9.443698
2023-02-19T06:34:45.588Z,9.443690
2023-02-19T06:35:45.603Z,9.443648
2023-02-19T06:36:48.869Z,9.443707
2023-02-19T06:37:47.193Z,9.443708
2023-02-19T06:38:46.150Z,9.443740
2023-02-19T06:39:47.756Z,9.443732
2023-02-19T06:40:45.579Z,9.443727
2023-02-19T06:41:45.537Z,9.443736
2023-02-19T06:42:48.510Z,9.443680
2023-02-19T06:43:46.199Z,9.443702
2023-02-19T06:44:45.598Z,9.443738
2023-02-19T06:45:46.739Z,9.443796
2023-02-19T06:46:45.523Z,9.443773
2023-02-19T06:47:46.694Z,9.443791
2023-02-19T06:48:45.489Z,9.443768
2023-02-19T06:49:45.495Z,9.443736
2023-02-19T06:50:45.643Z,9.443668
2023-02-19T06:51:45.482Z,9.443703
2023-02-19T06:52:46.575Z,9.443830
2023-02-19T06:53:45.667Z,9.443872
2023-02-19T06:54:45.634Z,9.443844
2023-02-19T06:55:47.834Z,9.443840
2023-02-19T06:56:47.083Z,9.443853
2023-02-19T06:57:46.531Z,9.443816
2023-02-19T06:58:45.446Z,9.443752
2023-02-19T06:59:45.469Z,9.443795
2023-02-19T07:00:45.452Z,9.443772
2023-02-19T07:01:46.256Z,9.443741
2023-02-19T07:02:46.326Z,9.443722
2023-02-19T07:03:45.644Z,9.443656
2023-02-19T07:04:45.393Z,9.443694
2023-02-19T07:05:45.423Z,9.443717
2023-02-19T07:06:45.367Z,9.443659
2023-02-19T07:07:46.180Z,9.443544
2023-02-19T07:08:45.420Z,9.443601
2023-02-19T07:09:45.446Z,9.443661
2023-02-19T07:10:46.112Z,9.443686
2023-02-19T07:11:46.671Z,9.443693
2023-02-19T07:12:47.222Z,9.443677
2023-02-19T07:13:45.342Z,9.443629
2023-02-19T07:14:45.317Z,9.443702
2023-02-19T07:15:45.460Z,9.443636
2023-02-19T07:16:46.131Z,9.443664
2023-02-19T07:17:47.127Z,9.443603
2023-02-19T07:18:45.299Z,9.443673
2023-02-19T07:19:45.312Z,9.443622
2023-02-19T07:20:45.286Z,9.443572
2023-02-19T07:21:49.263Z,9.443666
2023-02-19T07:22:46.388Z,9.443725
2023-02-19T07:23:45.578Z,9.443777
2023-02-19T07:24:47.811Z,9.443770
2023-02-19T07:25:45.257Z,9.443780
2023-02-19T07:26:45.229Z,9.443897
2023-02-19T07:27:45.268Z,9.443839
2023-02-19T07:28:45.338Z,9.443773
2023-02-19T07:29:46.250Z,9.443761
2023-02-19T07:30:45.320Z,9.443718
2023-02-19T07:31:45.217Z,9.443681
2023-02-19T07:32:45.201Z,9.443735
2023-02-19T07:33:45.222Z,9.443754
2023-02-19T07:34:45.189Z,9.443752
2023-02-19T07:35:45.233Z,9.443747
2023-02-19T07:36:45.181Z,9.443767
2023-02-19T07:37:45.201Z,9.443802
2023-02-19T07:38:46.394Z,9.443777
2023-02-19T07:39:45.157Z,9.443739
2023-02-19T07:40:45.312Z,9.443748
2023-02-19T07:41:45.176Z,9.443710
2023-02-19T07:42:45.146Z,9.443729
2023-02-19T07:43:45.151Z,9.443831
2023-02-19T07:44:45.140Z,9.443765
2023-02-19T07:45:45.242Z,9.443711
2023-02-19T07:46:45.354Z,9.443757
2023-02-19T07:47:45.657Z,9.443803
2023-02-19T07:48:45.121Z,9.443807
2023-02-19T07:49:45.123Z,9.443686
2023-02-19T07:50:45.085Z,9.443621
2023-02-19T07:51:45.157Z,9.443750
2023-02-19T07:52:45.093Z,9.443697
2023-02-19T07:53:45.070Z,9.443794
2023-02-19T07:54:45.100Z,9.443734
2023-02-19T07:55:45.084Z,9.443792
2023-02-19T07:56:45.058Z,9.443760
2023-02-19T07:57:45.065Z,9.443744
2023-02-19T07:58:45.087Z,9.443677
2023-02-19T07:59:45.036Z,9.443773
2023-02-19T08:00:45.048Z,9.443867
2023-02-19T08:01:45.074Z,9.443755
2023-02-19T08:02:45.030Z,9.443694
2023-02-19T08:03:45.012Z,9.443646
2023-02-19T08:04:45.039Z,9.443613
2023-02-19T08:05:45.019Z,9.443567
2023-02-19T08:06:45.013Z,9.443762
2023-02-19T08:07:44.992Z,9.443805
2023-02-19T08:08:45.001Z,9.443776
2023-02-19T08:09:44.977Z,9.443727
2023-02-19T08:10:44.956Z,9.443709
2023-02-19T08:11:44.989Z,9.443770
2023-02-19T08:12:44.953Z,9.443810
2023-02-19T08:13:44.957Z,9.443748
2023-02-19T08:14:45.020Z,9.443666
2023-02-19T08:15:44.933Z,9.443745
2023-02-19T08:16:44.959Z,9.443705
2023-02-19T08:17:44.919Z,9.443756
2023-02-19T08:18:44.917Z,9.443707
2023-02-19T08:19:44.926Z,9.443750
2023-02-19T08:20:44.899Z,9.443769
2023-02-19T08:21:44.880Z,9.443765
2023-02-19T08:22:45.293Z,9.443745
2023-02-19T08:23:44.864Z,9.443759
2023-02-19T08:24:44.890Z,9.443809
2023-02-19T08:25:45.066Z,9.443718
2023-02-19T08:26:44.859Z,9.443727
2023-02-19T08:27:44.854Z,9.443749
2023-02-19T08:28:44.897Z,9.443783
2023-02-19T08:29:44.838Z,9.443815
2023-02-19T08:30:44.925Z,9.443809
2023-02-19T08:31:44.924Z,9.443762
2023-02-19T08:32:44.827Z,9.443714
2023-02-19T08:33:44.815Z,9.443753
2023-02-19T08:34:44.828Z,9.443672
2023-02-19T08:35:44.836Z,9.443670
2023-02-19T08:36:44.792Z,9.443667
2023-02-19T08:37:44.854Z,9.443653
2023-02-19T08:38:44.802Z,9.443739
2023-02-19T08:39:44.769Z,9.443802
2023-02-19T08:40:44.792Z,9.443767
2023-02-19T08:41:44.761Z,9.443656
2023-02-19T08:42:44.761Z,9.443678
2023-02-19T08:43:44.777Z,9.443629
2023-02-19T08:44:44.744Z,9.443623
2023-02-19T08:45:44.736Z,9.443616
2023-02-19T08:46:44.770Z,9.443607
2023-02-19T08:47:44.734Z,9.443629
2023-02-19T08:48:44.703Z,9.443619
2023-02-19T08:49:44.755Z,9.443582
2023-02-19T08:50:44.700Z,9.443695
2023-02-19T08:51:44.690Z,9.443694
2023-02-19T08:52:44.682Z,9.443578
2023-02-19T08:53:44.703Z,9.443690
2023-02-19T08:54:44.658Z,9.443620
2023-02-19T08:55:44.679Z,9.443608
2023-02-19T08:56:44.664Z,9.443563
2023-02-19T08:57:44.636Z,9.443770
2023-02-19T08:58:44.656Z,9.443732
2023-02-19T08:59:44.642Z,9.443655
2023-02-19T09:00:44.629Z,9.443725
2023-02-19T09:01:44.739Z,9.443726
2023-02-19T09:02:44.599Z,9.443727
2023-02-19T09:03:44.684Z,9.443715
2023-02-19T09:04:44.631Z,9.443729
2023-02-19T09:05:44.586Z,9.443758
2023-02-19T09:06:44.578Z,9.443769
2023-02-19T09:07:44.600Z,9.443733
2023-02-19T09:08:45.232Z,9.443711
2023-02-19T09:09:44.562Z,9.443644
2023-02-19T09:10:45.660Z,9.443706
2023-02-19T09:11:44.575Z,9.443789
2023-02-19T09:12:44.681Z,9.443763
2023-02-19T09:13:44.573Z,9.443706
2023-02-19T09:14:45.116Z,9.443782
2023-02-19T09:15:44.548Z,9.443626
2023-02-19T09:16:44.561Z,9.443681
2023-02-19T09:18:04.043Z,9.443646
2023-02-19T09:18:44.500Z,9.443723
2023-02-19T09:19:44.519Z,9.443748
2023-02-19T09:20:44.481Z,9.443741
2023-02-19T09:21:44.497Z,9.443747
2023-02-19T09:22:44.491Z,9.443717
2023-02-19T09:23:44.471Z,9.443721
2023-02-19T09:24:44.496Z,9.443766
2023-02-19T09:25:44.568Z,9.443806
2023-02-19T09:26:44.717Z,9.443846
2023-02-19T09:27:44.453Z,9.443797
2023-02-19T09:28:44.449Z,9.443746
2023-02-19T09:29:44.634Z,9.443716
2023-02-19T09:30:44.472Z,9.443705
2023-02-19T09:31:45.341Z,9.443726
2023-02-19T09:32:44.482Z,9.443767
2023-02-19T09:33:44.433Z,9.443756
2023-02-19T09:34:44.391Z,9.443728
2023-02-19T09:35:44.513Z,9.443699
2023-02-19T09:36:44.419Z,9.443768
2023-02-19T09:37:44.412Z,9.443842
2023-02-19T09:38:44.389Z,9.443784
2023-02-19T09:39:44.357Z,9.443756
2023-02-19T09:40:44.443Z,9.443523
2023-02-19T09:41:44.359Z,9.443582
2023-02-19T09:42:44.350Z,9.443695
2023-02-19T09:43:44.406Z,9.443795
2023-02-19T09:44:44.339Z,9.443786
2023-02-19T09:45:44.336Z,9.443789
2023-02-19T09:46:44.322Z,9.443793
2023-02-19T09:47:44.318Z,9.443781
2023-02-19T09:48:45.694Z,9.443728
2023-02-19T09:49:44.296Z,9.443807
2023-02-19T09:50:45.380Z,9.443728
2023-02-19T09:51:44.285Z,9.443730
2023-02-19T09:52:44.359Z,9.443771
2023-02-19T09:53:44.283Z,9.443820
2023-02-19T09:54:45.506Z,9.443755
2023-02-19T09:55:45.036Z,9.443733
2023-02-19T09:56:44.275Z,9.443722
2023-02-19T09:57:44.275Z,9.443726
2023-02-19T09:58:44.310Z,9.443692
2023-02-19T09:59:44.237Z,9.443676
2023-02-19T10:00:44.231Z,9.443678
2023-02-19T10:01:44.234Z,9.443651
2023-02-19T10:02:44.207Z,9.443653
2023-02-19T10:03:44.655Z,9.443712
2023-02-19T10:04:44.301Z,9.443762
2023-02-19T10:05:45.078Z,9.443718
2023-02-19T10:06:44.189Z,9.443789
2023-02-19T10:07:44.239Z,9.443696
2023-02-19T10:08:45.643Z,9.443693
2023-02-19T10:09:45.165Z,9.443664
2023-02-19T10:10:44.180Z,9.443689
2023-02-19T10:11:44.149Z,9.443707
2023-02-19T10:12:44.150Z,9.443577
2023-02-19T10:13:44.171Z,9.443426
2023-02-19T10:14:44.147Z,9.443416
2023-02-19T10:15:44.214Z,9.443584
2023-02-19T10:16:44.137Z,9.443577
2023-02-19T10:17:44.360Z,9.443606
2023-02-19T10:18:44.113Z,9.443544
2023-02-19T10:19:44.112Z,9.443489
2023-02-19T10:20:44.113Z,9.443461
2023-02-19T10:21:44.155Z,9.443572
2023-02-19T10:22:44.092Z,9.443516
2023-02-19T10:23:45.099Z,9.443436
2023-02-19T10:24:44.086Z,9.443579
2023-02-19T10:25:44.099Z,9.443431
2023-02-19T10:26:44.089Z,9.443643
2023-02-19T10:27:44.172Z,9.443784
2023-02-19T10:28:44.060Z,9.443609
2023-02-19T10:29:44.054Z,9.443596
2023-02-19T10:30:44.073Z,9.443662
2023-02-19T10:31:44.328Z,9.443678
2023-02-19T10:32:44.025Z,9.443611
2023-02-19T10:33:44.029Z,9.443631
2023-02-19T10:34:44.013Z,9.443708
2023-02-19T10:35:44.011Z,9.443690
2023-02-19T10:36:44.152Z,9.443550
2023-02-19T10:37:44.031Z,9.443489
2023-02-19T10:38:44.663Z,9.443544
2023-02-19T10:39:44.115Z,9.443554
2023-02-19T10:40:43.986Z,9.443651
2023-02-19T10:41:44.456Z,9.443751
2023-02-19T10:42:44.967Z,9.443624
2023-02-19T10:43:43.980Z,9.443521
2023-02-19T10:44:43.958Z,9.443488
2023-02-19T10:45:43.947Z,9.443451
2023-02-19T10:46:43.986Z,9.443470
2023-02-19T10:47:44.027Z,9.443653
2023-02-19T10:48:43.989Z,9.443583
2023-02-19T10:49:43.977Z,9.443567
2023-02-19T10:50:43.962Z,9.443636
2023-02-19T10:51:44.889Z,9.443618
2023-02-19T10:52:43.901Z,9.443643
2023-02-19T10:53:43.891Z,9.443658
2023-02-19T10:54:43.904Z,9.443546
2023-02-19T10:55:43.929Z,9.443729
2023-02-19T10:56:43.895Z,9.443605
2023-02-19T10:57:43.869Z,9.443614
2023-02-19T10:58:43.883Z,9.443660
2023-02-19T10:59:46.234Z,9.443627
2023-02-19T11:00:44.673Z,9.443674
2023-02-19T11:01:43.911Z,9.443688
2023-02-19T11:02:43.844Z,9.443640
2023-02-19T11:03:43.842Z,9.443492
2023-02-19T11:04:43.864Z,9.443532
2023-02-19T11:05:43.814Z,9.443707
2023-02-19T11:06:43.831Z,9.443748
2023-02-19T11:07:43.804Z,9.443652
2023-02-19T11:08:43.797Z,9.443608
2023-02-19T11:09:43.802Z,9.443561
2023-02-19T11:10:43.837Z,9.443578
2023-02-19T11:11:43.785Z,9.443582
2023-02-19T11:12:43.759Z,9.443570
2023-02-19T11:13:44.020Z,9.443730
2023-02-19T11:14:44.139Z,9.443756
2023-02-19T11:15:43.774Z,9.443719
2023-02-19T11:16:43.844Z,9.443737
2023-02-19T11:17:43.747Z,9.443652
2023-02-19T11:18:43.739Z,9.443602
2023-02-19T11:19:43.811Z,9.443563
2023-02-19T11:20:43.743Z,9.443433
2023-02-19T11:21:43.716Z,9.443524
2023-02-19T11:22:43.702Z,9.443676
2023-02-19T11:23:43.700Z,9.443601
2023-02-19T11:24:43.696Z,9.443523
2023-02-19T11:25:43.681Z,9.443780
2023-02-19T11:26:43.772Z,9.443714
2023-02-19T11:27:43.845Z,9.443723
2023-02-19T11:28:43.660Z,9.443613
2023-02-19T11:29:43.654Z,9.443592
2023-02-19T11:30:43.712Z,9.443596
2023-02-19T11:31:43.742Z,9.443751
2023-02-19T11:32:44.652Z,9.443643
2023-02-19T11:33:43.641Z,9.443596
2023-02-19T11:34:44.644Z,9.443539
2023-02-19T11:35:43.685Z,9.443288
2023-02-19T11:36:43.600Z,9.443426
2023-02-19T11:37:43.636Z,9.443522
2023-02-19T11:38:43.634Z,9.443705
2023-02-19T11:39:43.634Z,9.443721
2023-02-19T11:40:43.586Z,9.443649
2023-02-19T11:41:43.637Z,9.443633
2023-02-19T11:42:43.633Z,9.443462
2023-02-19T11:43:44.168Z,9.443320
2023-02-19T11:44:44.588Z,9.443846